Provincetown, Massachusetts
Current Conditions -  °F | °C
As of 2:35 PM on Thursday 23 Oct 2014 (Local Time) from KPVC Reporting Station
Overcast Overcast  
Wind Chill: 59°   Ceiling: 9500
Heat Index: 59°   Visibility: 1.7mi
Dew Point:   Wind: 14mph
Humidity: 11%   Direction: 40°NE
Pressure: 29.52"   Gusts: 22mph
Location:  42.06°N, 70.18°W
Report Text: KPVC 231835Z 04012G19KT 1 3/4SM SCT009 OVC095 15/M16 A2952 RMK AO1
Loading
Personal Weather Stations






























Interactive Weather Map
Tropical Storm Tracking
New forecast layout! Learn more

10-Day Weather Forecast

Advertisements
Track Severe Weather on mobile